Time;durP1;ratioP1;P1;durP2;ratioP2;P2;SDS_P1;SDS_P2;PMS_P1;PMS_P2;Temp;Humidity;BMP_temperature;BMP_pressure;BME280_temperature;BME280_humidity;BME280_pressure;Samples;Min_cycle;Max_cycle;Signal;HPM_P1;HPM_P2
2023/06/26 00:01:42;;;;;;;3.63;3.33;;;;;;;;;;4973855;28;20164;-78
2023/06/26 00:04:07;;;;;;;4.75;4.20;;;;;;;;;;4985565;28;20070;-78
2023/06/26 00:06:33;;;;;;;4.28;3.15;;;;;;;;;;4985912;28;20046;-76
2023/06/26 00:08:58;;;;;;;4.63;4.00;;;;;;;;;;4970483;28;20055;-78
2023/06/26 00:11:24;;;;;;;3.30;3.00;;;;;;;;;;4975529;28;20098;-75
2023/06/26 00:13:49;;;;;;;4.35;3.70;;;;;;;;;;4982238;28;20113;-78
2023/06/26 00:16:14;;;;;;;5.18;4.00;;;;;;;;;;4986895;28;20442;-77
2023/06/26 00:18:40;;;;;;;6.10;4.25;;;;;;;;;;4964217;28;20431;-76
2023/06/26 00:21:05;;;;;;;4.95;4.20;;;;;;;;;;4975882;28;20031;-77
2023/06/26 00:23:32;;;;;;;5.95;4.55;;;;;;;;;;4979238;28;20054;-76
2023/06/26 00:25:57;;;;;;;3.63;3.33;;;;;;;;;;4982451;28;20033;-78
2023/06/26 00:28:22;;;;;;;4.70;3.85;;;;;;;;;;4980876;28;20395;-76
2023/06/26 00:30:48;;;;;;;3.80;3.13;;;;;;;;;;4976042;28;20033;-78
2023/06/26 00:33:13;;;;;;;3.78;3.15;;;;;;;;;;4979380;28;20031;-75
2023/06/26 00:35:39;;;;;;;4.63;3.92;;;;;;;;;;4987758;28;20094;-77
2023/06/26 00:38:04;;;;;;;3.90;3.03;;;;;;;;;;4981497;28;20037;-76
2023/06/26 00:40:29;;;;;;;3.78;3.40;;;;;;;;;;4973093;28;20027;-76
2023/06/26 00:42:55;;;;;;;5.18;4.30;;;;;;;;;;4966950;28;20022;-76
2023/06/26 00:45:20;;;;;;;3.45;3.10;;;;;;;;;;4967988;28;20562;-75
2023/06/26 00:47:46;;;;;;;5.40;4.00;;;;;;;;;;4983843;28;20065;-77
2023/06/26 00:50:11;;;;;;;3.67;3.20;;;;;;;;;;4983622;28;20416;-76
2023/06/26 00:52:37;;;;;;;6.07;3.80;;;;;;;;;;4985528;28;20022;-75
2023/06/26 00:55:04;;;;;;;4.72;4.15;;;;;;;;;;4969878;28;20075;-76
2023/06/26 00:57:30;;;;;;;6.32;4.22;;;;;;;;;;4981279;28;20022;-75
2023/06/26 00:59:56;;;;;;;5.10;3.78;;;;;;;;;;4988224;28;20057;-75
2023/06/26 01:02:22;;;;;;;6.53;3.58;;;;;;;;;;4979188;28;20030;-76
2023/06/26 01:04:49;;;;;;;5.88;3.97;;;;;;;;;;4982037;28;20423;-77
2023/06/26 01:07:18;;;;;;;4.68;4.10;;;;;;;;;;4978901;28;20061;-76
2023/06/26 01:09:45;;;;;;;3.67;3.38;;;;;;;;;;4981575;28;20026;-77
2023/06/26 01:12:11;;;;;;;5.50;3.92;;;;;;;;;;4971108;28;20085;-76
2023/06/26 01:14:36;;;;;;;4.60;3.83;;;;;;;;;;4978174;28;20526;-77
2023/06/26 01:17:02;;;;;;;4.68;3.75;;;;;;;;;;4966815;28;20026;-76
2023/06/26 01:19:30;;;;;;;4.68;4.00;;;;;;;;;;4977105;28;20101;-75
2023/06/26 01:22:14;;;;;;;3.95;3.47;;;;;;;;;;4989560;28;20045;-75
2023/06/26 01:24:45;;;;;;;4.78;4.22;;;;;;;;;;4974801;28;20022;-75
2023/06/26 01:27:11;;;;;;;;;;;;;;;;;;4969775;28;20062;-77
2023/06/26 01:29:37;;;;;;;4.13;3.60;;;;;;;;;;4971851;28;19921;-76
2023/06/26 01:32:03;;;;;;;4.85;3.95;;;;;;;;;;4982468;28;20022;-76
2023/06/26 01:34:29;;;;;;;5.72;4.53;;;;;;;;;;4974501;28;20034;-76
2023/06/26 01:36:55;;;;;;;3.67;3.30;;;;;;;;;;4962069;28;20018;-74
2023/06/26 01:39:20;;;;;;;6.50;4.97;;;;;;;;;;4972853;28;20413;-77
2023/06/26 01:41:45;;;;;;;6.25;4.50;;;;;;;;;;4976043;28;20546;-76
2023/06/26 01:44:22;;;;;;;4.30;3.50;;;;;;;;;;4973432;28;20067;-74
2023/06/26 01:46:54;;;;;;;5.65;3.75;;;;;;;;;;4985308;28;20105;-76
2023/06/26 01:49:54;;;;;;;5.18;4.10;;;;;;;;;;4968938;28;20031;-77
2023/06/26 01:52:32;;;;;;;5.20;3.63;;;;;;;;;;4975623;28;20451;-74
2023/06/26 01:55:28;;;;;;;4.10;3.70;;;;;;;;;;4975738;28;20030;-75
2023/06/26 01:57:56;;;;;;;4.57;4.10;;;;;;;;;;4972754;28;20026;-76
2023/06/26 02:00:23;;;;;;;4.78;4.28;;;;;;;;;;4982506;28;20030;-77
2023/06/26 02:02:48;;;;;;;4.28;3.38;;;;;;;;;;4978789;28;20833;-74
2023/06/26 02:05:14;;;;;;;5.75;4.47;;;;;;;;;;4969396;28;20085;-77
2023/06/26 02:07:40;;;;;;;5.65;3.50;;;;;;;;;;4967397;28;20387;-76
2023/06/26 02:10:06;;;;;;;5.72;4.80;;;;;;;;;;4983654;28;20524;-75
2023/06/26 02:12:31;;;;;;;4.72;3.80;;;;;;;;;;4978976;28;20082;-76
2023/06/26 02:14:56;;;;;;;3.25;2.95;;;;;;;;;;4981093;28;20046;-77
2023/06/26 02:17:22;;;;;;;3.72;3.25;;;;;;;;;;4971910;28;20122;-75
2023/06/26 02:19:47;;;;;;;6.40;4.65;;;;;;;;;;4971168;28;20023;-78
2023/06/26 02:22:16;;;;;;;4.55;3.90;;;;;;;;;;4984142;28;20037;-76
2023/06/26 02:24:45;;;;;;;4.13;3.45;;;;;;;;;;4975485;28;20022;-77
2023/06/26 02:27:10;;;;;;;14.15;4.07;;;;;;;;;;4972832;28;20061;-78
2023/06/26 02:29:36;;;;;;;6.20;4.72;;;;;;;;;;4978217;28;20472;-77
2023/06/26 02:32:02;;;;;;;5.65;4.28;;;;;;;;;;4969707;28;20707;-76
2023/06/26 02:34:27;;;;;;;7.28;3.90;;;;;;;;;;4971344;28;20437;-73
2023/06/26 02:36:56;;;;;;;6.65;4.95;;;;;;;;;;4971592;28;20089;-77
2023/06/26 02:39:22;;;;;;;4.75;3.45;;;;;;;;;;4984953;28;20035;-77
2023/06/26 02:41:47;;;;;;;4.93;3.42;;;;;;;;;;4971670;28;20034;-77
2023/06/26 02:44:14;;;;;;;5.10;4.20;;;;;;;;;;4989009;28;20026;-76
2023/06/26 02:46:40;;;;;;;3.88;3.30;;;;;;;;;;4977731;28;20798;-76
2023/06/26 02:49:05;;;;;;;6.40;4.30;;;;;;;;;;4968771;28;20030;-73
2023/06/26 02:51:33;;;;;;;4.15;3.45;;;;;;;;;;4972928;28;20395;-75
2023/06/26 02:53:58;;;;;;;6.47;4.70;;;;;;;;;;4973641;28;20030;-76
2023/06/26 02:56:24;;;;;;;3.45;3.15;;;;;;;;;;4977444;28;20030;-75
2023/06/26 02:58:49;;;;;;;4.38;3.92;;;;;;;;;;4963217;28;20029;-76
2023/06/26 03:01:14;;;;;;;3.92;3.40;;;;;;;;;;4965779;28;20030;-76
2023/06/26 03:03:41;;;;;;;4.85;4.20;;;;;;;;;;4960292;28;20041;-75
2023/06/26 03:06:07;;;;;;;3.85;3.33;;;;;;;;;;4981752;28;20026;-76
2023/06/26 03:08:36;;;;;;;7.00;3.78;;;;;;;;;;4972619;28;20038;-75
2023/06/26 03:11:01;;;;;;;3.40;3.10;;;;;;;;;;4966399;28;20031;-77
2023/06/26 03:13:27;;;;;;;4.45;3.90;;;;;;;;;;4968052;28;20039;-76
2023/06/26 03:15:52;;;;;;;5.88;3.90;;;;;;;;;;4972486;28;20033;-77
2023/06/26 03:18:17;;;;;;;4.72;4.00;;;;;;;;;;4971990;28;20120;-75
2023/06/26 03:20:43;;;;;;;4.18;3.72;;;;;;;;;;4979531;28;20646;-77
2023/06/26 03:23:08;;;;;;;3.65;3.35;;;;;;;;;;4971501;28;20098;-75
2023/06/26 03:25:33;;;;;;;4.30;3.70;;;;;;;;;;4964723;28;20114;-76
2023/06/26 03:27:59;;;;;;;5.85;4.20;;;;;;;;;;4983309;28;20030;-77
2023/06/26 03:30:24;;;;;;;4.15;3.75;;;;;;;;;;4976459;28;20128;-77
2023/06/26 03:32:49;;;;;;;4.80;3.90;;;;;;;;;;4975698;28;20023;-77
2023/06/26 03:35:15;;;;;;;4.40;3.67;;;;;;;;;;4971311;28;20437;-75
2023/06/26 03:37:40;;;;;;;5.38;4.28;;;;;;;;;;4973984;28;20037;-75
2023/06/26 03:40:06;;;;;;;6.25;3.83;;;;;;;;;;4984167;28;20027;-77
2023/06/26 03:42:32;;;;;;;4.43;3.63;;;;;;;;;;4982775;28;20081;-76
2023/06/26 03:44:57;;;;;;;5.82;4.18;;;;;;;;;;4953735;28;20026;-76
2023/06/26 03:47:23;;;;;;;4.88;4.10;;;;;;;;;;4968207;28;20039;-77
2023/06/26 03:49:48;;;;;;;5.38;4.05;;;;;;;;;;4981690;28;20455;-76
2023/06/26 03:52:13;;;;;;;6.60;4.30;;;;;;;;;;4971736;28;20043;-75
2023/06/26 03:54:39;;;;;;;4.70;3.95;;;;;;;;;;4973338;28;20023;-76
2023/06/26 03:57:04;;;;;;;4.60;4.03;;;;;;;;;;4974629;28;20031;-76
2023/06/26 03:59:30;;;;;;;4.75;4.15;;;;;;;;;;4971047;28;20026;-76
2023/06/26 04:01:56;;;;;;;5.60;4.63;;;;;;;;;;4975701;28;20103;-76
2023/06/26 04:04:21;;;;;;;4.75;4.10;;;;;;;;;;4971881;28;20021;-75
2023/06/26 04:06:47;;;;;;;5.43;4.43;;;;;;;;;;4969922;28;20098;-76
2023/06/26 04:09:12;;;;;;;5.20;4.65;;;;;;;;;;4970293;28;20034;-77
2023/06/26 04:11:37;;;;;;;5.95;4.68;;;;;;;;;;4984054;28;20542;-76
2023/06/26 04:14:03;;;;;;;8.18;4.90;;;;;;;;;;4977603;28;20122;-77
2023/06/26 04:16:28;;;;;;;5.68;4.90;;;;;;;;;;4979319;28;20026;-76
2023/06/26 04:18:56;;;;;;;6.60;4.53;;;;;;;;;;4970460;28;20099;-75
2023/06/26 04:21:24;;;;;;;7.55;5.00;;;;;;;;;;4971654;28;20071;-76
2023/06/26 04:23:50;;;;;;;6.55;4.60;;;;;;;;;;4969931;28;20483;-77
2023/06/26 04:26:16;;;;;;;8.43;5.20;;;;;;;;;;4972773;28;20049;-76
2023/06/26 04:28:42;;;;;;;10.15;4.75;;;;;;;;;;4972959;28;20030;-76
2023/06/26 04:31:08;;;;;;;6.95;4.47;;;;;;;;;;4975346;28;20030;-77
2023/06/26 04:33:35;;;;;;;9.73;4.45;;;;;;;;;;4983632;28;20032;-77
2023/06/26 04:36:03;;;;;;;6.53;4.50;;;;;;;;;;4975939;28;20085;-77
2023/06/26 04:38:28;;;;;;;7.32;4.53;;;;;;;;;;4980451;28;20114;-76
2023/06/26 04:40:54;;;;;;;9.02;6.38;;;;;;;;;;4963663;28;20070;-77
2023/06/26 04:43:19;;;;;;;8.05;5.60;;;;;;;;;;4968836;28;20034;-77
2023/06/26 04:45:44;;;;;;;8.23;5.03;;;;;;;;;;4976692;28;20486;-75
2023/06/26 04:48:10;;;;;;;8.10;4.90;;;;;;;;;;4959334;28;20042;-77
2023/06/26 04:50:35;;;;;;;6.95;4.53;;;;;;;;;;4967959;28;20029;-76
2023/06/26 04:53:01;;;;;;;8.45;4.85;;;;;;;;;;4973380;28;20058;-76
2023/06/26 04:55:27;;;;;;;10.38;5.47;;;;;;;;;;4985961;28;20066;-75
2023/06/26 04:57:52;;;;;;;7.10;4.80;;;;;;;;;;4976959;28;20491;-76
2023/06/26 05:00:18;;;;;;;7.30;5.20;;;;;;;;;;4976904;28;20121;-75
2023/06/26 05:02:43;;;;;;;13.85;5.78;;;;;;;;;;4975604;28;20027;-76
2023/06/26 05:05:10;;;;;;;7.97;5.57;;;;;;;;;;4979556;28;20023;-77
2023/06/26 05:07:35;;;;;;;7.18;4.97;;;;;;;;;;4994721;28;20032;-76
2023/06/26 05:10:01;;;;;;;9.65;4.55;;;;;;;;;;4975280;28;20022;-76
2023/06/26 05:12:26;;;;;;;8.00;5.05;;;;;;;;;;4978582;28;20054;-77
2023/06/26 05:14:52;;;;;;;7.05;5.47;;;;;;;;;;4970362;28;20023;-76
2023/06/26 05:17:17;;;;;;;6.78;4.93;;;;;;;;;;4984013;28;20081;-76
2023/06/26 05:19:42;;;;;;;5.53;4.82;;;;;;;;;;4976311;28;20039;-75
2023/06/26 05:22:08;;;;;;;7.95;5.28;;;;;;;;;;4967124;28;20510;-78
2023/06/26 05:24:38;;;;;;;10.10;5.15;;;;;;;;;;4981858;28;20054;-79
2023/06/26 05:27:04;;;;;;;6.53;5.25;;;;;;;;;;4983262;28;20394;-79
2023/06/26 05:29:31;;;;;;;9.65;5.70;;;;;;;;;;4996680;28;20030;-77
2023/06/26 05:31:57;;;;;;;5.85;5.05;;;;;;;;;;4979961;28;20403;-76
2023/06/26 05:34:23;;;;;;;8.70;5.93;;;;;;;;;;4977069;28;20030;-76
2023/06/26 05:39:22;;;;;;;10.07;6.80;;;;;;;;;;4976563;28;20403;-77
2023/06/26 05:41:48;;;;;;;11.63;7.18;;;;;;;;;;4971909;28;20023;-77
2023/06/26 05:44:13;;;;;;;10.75;6.80;;;;;;;;;;4966164;28;20044;-77
2023/06/26 05:46:39;;;;;;;10.00;7.00;;;;;;;;;;4967942;28;20031;-77
2023/06/26 05:49:04;;;;;;;8.65;6.03;;;;;;;;;;4958182;28;20494;-77
2023/06/26 05:51:30;;;;;;;9.13;6.60;;;;;;;;;;4970428;28;20022;-77
2023/06/26 05:53:55;;;;;;;10.18;6.75;;;;;;;;;;4959331;28;20030;-77
2023/06/26 05:56:21;;;;;;;9.07;6.68;;;;;;;;;;4965633;28;20030;-77
2023/06/26 05:58:47;;;;;;;9.13;6.43;;;;;;;;;;4961226;28;20149;-77
2023/06/26 06:01:13;;;;;;;9.40;6.80;;;;;;;;;;4957248;28;20031;-77
2023/06/26 06:03:39;;;;;;;9.00;7.35;;;;;;;;;;4963696;28;20042;-77
2023/06/26 06:06:05;;;;;;;8.55;6.63;;;;;;;;;;4959476;28;20494;-77
2023/06/26 06:08:30;;;;;;;10.18;6.97;;;;;;;;;;4960662;28;20031;-77
2023/06/26 06:10:56;;;;;;;8.50;6.32;;;;;;;;;;4960565;28;20043;-77
2023/06/26 06:13:21;;;;;;;9.18;6.60;;;;;;;;;;4967867;28;20019;-77
2023/06/26 06:15:46;;;;;;;12.02;7.28;;;;;;;;;;4958297;28;20331;-77
2023/06/26 06:18:12;;;;;;;9.55;7.05;;;;;;;;;;4969148;28;20029;-77
2023/06/26 06:20:37;;;;;;;9.35;7.32;;;;;;;;;;4962847;28;20426;-77
2023/06/26 06:23:03;;;;;;;13.90;6.57;;;;;;;;;;4968162;28;20023;-77
2023/06/26 06:25:28;;;;;;;10.00;6.68;;;;;;;;;;4962723;28;20047;-77
2023/06/26 06:27:53;;;;;;;11.65;7.10;;;;;;;;;;4964989;28;20047;-77
2023/06/26 06:30:19;;;;;;;9.90;6.32;;;;;;;;;;4964575;28;20043;-77
2023/06/26 06:32:45;;;;;;;9.70;6.65;;;;;;;;;;4960477;28;20562;-77
2023/06/26 06:35:10;;;;;;;10.38;6.35;;;;;;;;;;4967994;28;20394;-77
2023/06/26 06:37:39;;;;;;;9.95;6.65;;;;;;;;;;4963458;28;20494;-77
2023/06/26 06:40:09;;;;;;;7.88;5.95;;;;;;;;;;4941057;28;20078;-77
2023/06/26 06:42:35;;;;;;;6.97;5.47;;;;;;;;;;4965908;28;20110;-77
2023/06/26 06:45:05;;;;;;;8.18;5.93;;;;;;;;;;4955857;28;20059;-77
2023/06/26 06:47:31;;;;;;;7.45;5.50;;;;;;;;;;4961439;28;20496;-77
2023/06/26 06:49:57;;;;;;;7.22;5.43;;;;;;;;;;4957958;28;20568;-77
2023/06/26 06:52:22;;;;;;;12.45;5.85;;;;;;;;;;4958323;28;20135;-77
2023/06/26 06:54:55;;;;;;;10.23;6.15;;;;;;;;;;4959215;28;20030;-77
2023/06/26 06:57:21;;;;;;;8.18;5.90;;;;;;;;;;4963452;28;20347;-77
2023/06/26 06:59:47;;;;;;;8.35;6.00;;;;;;;;;;4961283;28;20360;-77
2023/06/26 07:02:13;;;;;;;9.18;6.07;;;;;;;;;;4963336;28;20054;-77
2023/06/26 07:04:38;;;;;;;7.25;5.28;;;;;;;;;;4961470;28;20047;-77
2023/06/26 07:07:04;;;;;;;6.78;5.45;;;;;;;;;;4957377;28;20100;-77
2023/06/26 07:09:29;;;;;;;8.15;5.57;;;;;;;;;;4957807;28;20026;-77
2023/06/26 07:11:55;;;;;;;9.23;5.93;;;;;;;;;;4963952;28;20016;-77
2023/06/26 07:14:20;;;;;;;7.93;5.20;;;;;;;;;;4960481;28;20019;-77
2023/06/26 07:16:45;;;;;;;9.02;6.07;;;;;;;;;;4959360;28;20023;-77
2023/06/26 07:19:11;;;;;;;7.35;5.32;;;;;;;;;;4959446;28;20626;-78
2023/06/26 07:21:36;;;;;;;6.75;5.10;;;;;;;;;;4963965;28;20082;-77
2023/06/26 07:24:01;;;;;;;10.65;6.82;;;;;;;;;;4964616;28;20015;-77
2023/06/26 07:26:27;;;;;;;6.90;4.45;;;;;;;;;;4965167;28;20029;-77
2023/06/26 07:28:52;;;;;;;8.70;6.07;;;;;;;;;;4959444;28;20059;-77
2023/06/26 07:31:18;;;;;;;8.90;5.78;;;;;;;;;;4958065;28;20038;-78
2023/06/26 07:33:43;;;;;;;7.10;5.70;;;;;;;;;;4968114;28;20030;-77
2023/06/26 07:36:08;;;;;;;9.45;5.22;;;;;;;;;;4950831;28;20019;-77
2023/06/26 07:38:34;;;;;;;8.82;5.45;;;;;;;;;;4964160;28;20047;-78
2023/06/26 07:40:59;;;;;;;9.15;5.30;;;;;;;;;;4955917;28;20042;-78
2023/06/26 07:43:25;;;;;;;8.43;6.10;;;;;;;;;;4967403;28;20064;-77
2023/06/26 07:45:51;;;;;;;11.30;5.72;;;;;;;;;;4966679;28;20026;-78
2023/06/26 07:48:17;;;;;;;8.00;5.18;;;;;;;;;;4968330;28;20019;-77
2023/06/26 07:50:42;;;;;;;9.95;6.10;;;;;;;;;;4941769;28;20035;-77
2023/06/26 07:53:08;;;;;;;7.07;4.55;;;;;;;;;;4957971;28;20041;-78
2023/06/26 07:55:33;;;;;;;12.40;5.85;;;;;;;;;;4968055;28;20030;-78
2023/06/26 07:57:58;;;;;;;4.80;3.85;;;;;;;;;;4968653;28;20134;-78
2023/06/26 08:00:24;;;;;;;5.32;4.78;;;;;;;;;;4963743;28;20553;-77
2023/06/26 08:02:49;;;;;;;5.57;5.07;;;;;;;;;;4956392;28;20019;-77
2023/06/26 08:05:15;;;;;;;6.45;5.20;;;;;;;;;;4962677;28;20062;-78
2023/06/26 08:07:40;;;;;;;5.55;5.05;;;;;;;;;;4965791;28;20023;-77
2023/06/26 08:10:06;;;;;;;5.13;4.40;;;;;;;;;;4965713;28;20023;-78
2023/06/26 08:12:31;;;;;;;4.50;4.10;;;;;;;;;;4966377;28;20513;-77
2023/06/26 08:14:57;;;;;;;6.32;4.95;;;;;;;;;;4962915;28;20030;-78
2023/06/26 08:17:22;;;;;;;5.53;4.78;;;;;;;;;;4963839;28;20119;-78
2023/06/26 08:19:48;;;;;;;5.15;4.65;;;;;;;;;;4959019;28;20039;-78
2023/06/26 08:22:13;;;;;;;5.97;4.45;;;;;;;;;;4959851;28;20507;-78
2023/06/26 08:24:38;;;;;;;4.45;4.05;;;;;;;;;;4961533;28;20023;-78
2023/06/26 08:27:04;;;;;;;5.57;4.88;;;;;;;;;;4959270;28;20122;-78
2023/06/26 08:29:29;;;;;;;4.63;4.10;;;;;;;;;;4965879;28;20534;-78
2023/06/26 08:31:55;;;;;;;4.95;4.45;;;;;;;;;;4972479;28;20037;-78
2023/06/26 08:34:20;;;;;;;4.28;3.70;;;;;;;;;;4966449;28;20110;-78
2023/06/26 08:36:46;;;;;;;7.63;3.58;;;;;;;;;;4961763;28;20019;-78
2023/06/26 08:39:11;;;;;;;3.80;3.42;;;;;;;;;;4969545;28;20542;-78
2023/06/26 08:41:37;;;;;;;5.15;4.65;;;;;;;;;;4968106;28;20019;-78
2023/06/26 08:44:04;;;;;;;5.25;4.35;;;;;;;;;;4956395;28;20394;-78
2023/06/26 08:46:30;;;;;;;5.53;5.03;;;;;;;;;;4954549;28;20400;-78
2023/06/26 08:48:58;;;;;;;4.60;3.90;;;;;;;;;;4968784;28;20042;-78
2023/06/26 08:51:28;;;;;;;7.57;4.82;;;;;;;;;;4969965;28;20469;-78
2023/06/26 08:54:00;;;;;;;7.10;5.22;;;;;;;;;;4967009;28;20022;-78
2023/06/26 08:56:37;;;;;;;5.15;4.45;;;;;;;;;;4962331;28;20218;-78
2023/06/26 08:59:04;;;;;;;5.65;4.90;;;;;;;;;;4964578;28;20115;-78
2023/06/26 09:01:31;;;;;;;5.85;4.93;;;;;;;;;;4969881;28;20030;-78
2023/06/26 09:03:56;;;;;;;6.88;5.32;;;;;;;;;;4967912;28;20034;-78
2023/06/26 09:06:22;;;;;;;5.05;4.55;;;;;;;;;;4970843;28;20019;-78
2023/06/26 09:08:47;;;;;;;5.55;4.40;;;;;;;;;;4962967;28;20043;-78
2023/06/26 09:11:12;;;;;;;4.43;3.88;;;;;;;;;;4968111;28;20109;-78
2023/06/26 09:13:39;;;;;;;4.90;4.50;;;;;;;;;;4971212;28;20023;-78
2023/06/26 09:16:07;;;;;;;5.97;4.22;;;;;;;;;;4970970;28;20062;-78
2023/06/26 09:18:34;;;;;;;5.68;5.10;;;;;;;;;;4968637;28;20026;-78
2023/06/26 09:20:59;;;;;;;6.05;4.90;;;;;;;;;;4966037;28;20468;-78
2023/06/26 09:23:25;;;;;;;4.03;3.72;;;;;;;;;;4970002;28;20059;-78
2023/06/26 09:25:51;;;;;;;5.22;4.43;;;;;;;;;;4970443;28;20019;-79
2023/06/26 09:28:17;;;;;;;4.95;3.97;;;;;;;;;;4952487;28;20387;-78
2023/06/26 09:30:45;;;;;;;5.32;4.82;;;;;;;;;;4965316;28;20031;-78
2023/06/26 09:33:19;;;;;;;3.78;3.45;;;;;;;;;;4967021;28;20031;-78
2023/06/26 09:35:45;;;;;;;4.43;3.97;;;;;;;;;;4966397;28;20027;-78
2023/06/26 09:38:12;;;;;;;5.30;4.80;;;;;;;;;;4967450;28;20039;-78
2023/06/26 09:40:38;;;;;;;5.03;4.55;;;;;;;;;;4964311;28;20034;-78
2023/06/26 09:43:08;;;;;;;4.03;3.72;;;;;;;;;;4964312;28;20039;-78
2023/06/26 09:45:36;;;;;;;3.58;3.28;;;;;;;;;;4968283;28;20050;-78
2023/06/26 09:48:04;;;;;;;3.88;3.58;;;;;;;;;;4965240;28;20022;-78
2023/06/26 09:50:37;;;;;;;4.47;4.07;;;;;;;;;;4967371;28;20042;-78
2023/06/26 09:53:13;;;;;;;5.50;4.22;;;;;;;;;;4962809;28;20321;-78
2023/06/26 09:55:40;;;;;;;4.20;3.80;;;;;;;;;;4968189;28;20035;-78
2023/06/26 09:58:06;;;;;;;3.58;3.28;;;;;;;;;;4974341;28;20435;-78
2023/06/26 10:00:32;;;;;;;5.57;4.75;;;;;;;;;;4977683;28;20030;-78
2023/06/26 10:03:01;;;;;;;3.75;3.45;;;;;;;;;;4970134;28;20027;-78
2023/06/26 10:05:26;;;;;;;7.10;4.93;;;;;;;;;;4965037;28;20031;-78
2023/06/26 10:07:53;;;;;;;6.63;4.88;;;;;;;;;;4967231;28;20031;-78
2023/06/26 10:10:19;;;;;;;4.57;3.90;;;;;;;;;;4968308;28;20027;-78
2023/06/26 10:12:49;;;;;;;3.83;3.47;;;;;;;;;;4971534;28;20650;-78
2023/06/26 10:15:16;;;;;;;6.03;5.20;;;;;;;;;;4964659;28;20428;-79
2023/06/26 10:17:43;;;;;;;5.65;5.05;;;;;;;;;;4971969;28;20021;-78
2023/06/26 10:20:09;;;;;;;4.60;4.20;;;;;;;;;;4972767;28;20077;-78
2023/06/26 10:22:46;;;;;;;5.10;4.60;;;;;;;;;;4964180;28;20014;-78
2023/06/26 10:25:17;;;;;;;4.78;4.28;;;;;;;;;;4966344;28;20078;-78
2023/06/26 10:27:47;;;;;;;4.80;4.40;;;;;;;;;;4966713;28;20031;-79
2023/06/26 10:30:19;;;;;;;4.53;4.13;;;;;;;;;;4968685;28;20403;-79
2023/06/26 10:32:46;;;;;;;4.40;4.00;;;;;;;;;;4976261;28;20022;-78
2023/06/26 10:35:12;;;;;;;4.40;4.10;;;;;;;;;;4967939;28;20290;-78
2023/06/26 10:37:41;;;;;;;4.40;4.00;;;;;;;;;;4950017;28;20088;-79
2023/06/26 10:40:07;;;;;;;5.37;4.87;;;;;;;;;;4965856;28;20117;-78
2023/06/26 10:42:37;;;;;;;4.47;3.42;;;;;;;;;;4971746;28;20769;-79
2023/06/26 10:45:28;;;;;;;5.03;4.53;;;;;;;;;;4966139;28;21777;-80
2023/06/26 10:47:53;;;;;;;5.15;4.75;;;;;;;;;;4959736;28;20106;-79
2023/06/26 10:50:19;;;;;;;5.25;4.75;;;;;;;;;;4966705;28;20058;-79
2023/06/26 10:52:45;;;;;;;5.40;4.47;;;;;;;;;;4968554;28;20022;-78
2023/06/26 10:55:10;;;;;;;4.85;4.45;;;;;;;;;;4967575;28;20082;-80
2023/06/26 10:57:38;;;;;;;5.35;4.85;;;;;;;;;;4963122;28;20267;-79
2023/06/26 11:00:11;;;;;;;4.43;4.03;;;;;;;;;;4963360;28;20031;-79
2023/06/26 11:02:53;;;;;;;6.05;5.32;;;;;;;;;;4961081;28;20568;-79
2023/06/26 11:05:25;;;;;;;5.70;5.20;;;;;;;;;;4966927;28;20506;-79
2023/06/26 11:08:16;;;;;;;4.85;4.03;;;;;;;;;;4961243;28;20019;-79
2023/06/26 11:10:53;;;;;;;4.97;4.57;;;;;;;;;;4959475;28;20109;-79
2023/06/26 11:13:19;;;;;;;5.53;5.03;;;;;;;;;;4965799;28;20509;-79
2023/06/26 11:15:49;;;;;;;5.57;4.72;;;;;;;;;;4960573;28;20109;-79
2023/06/26 11:18:15;;;;;;;;;;;;;;;;;;4960330;28;20031;-79
2023/06/26 11:20:41;;;;;;;4.97;4.47;;;;;;;;;;4958434;28;19910;-79
2023/06/26 11:23:08;;;;;;;5.40;4.90;;;;;;;;;;4963667;28;20039;-78
2023/06/26 11:25:35;;;;;;;6.07;4.70;;;;;;;;;;4964611;28;20503;-79
2023/06/26 11:28:01;;;;;;;5.32;4.50;;;;;;;;;;4967093;28;20046;-79
2023/06/26 11:30:26;;;;;;;5.68;5.18;;;;;;;;;;4958596;28;20058;-78
2023/06/26 11:32:52;;;;;;;6.47;5.88;;;;;;;;;;4961367;28;20368;-79
2023/06/26 11:35:30;;;;;;;4.82;4.43;;;;;;;;;;4960014;28;20028;-80
2023/06/26 11:38:05;;;;;;;5.55;5.07;;;;;;;;;;4977143;23;20049;-80
2023/06/26 11:40:35;;;;;;;4.60;4.20;;;;;;;;;;4928694;29;20050;-78
2023/06/26 11:43:03;;;;;;;5.03;4.53;;;;;;;;;;4953657;28;20026;-77
2023/06/26 11:45:29;;;;;;;5.85;5.30;;;;;;;;;;4937846;29;20115;-77
2023/06/26 11:47:58;;;;;;;6.25;5.75;;;;;;;;;;4936847;28;20395;-78
2023/06/26 11:50:25;;;;;;;4.45;4.00;;;;;;;;;;4933731;29;20471;-77
2023/06/26 11:52:57;;;;;;;4.63;4.22;;;;;;;;;;4933422;29;20042;-78
2023/06/26 11:55:24;;;;;;;5.75;5.15;;;;;;;;;;4931301;29;20024;-76
2023/06/26 11:57:52;;;;;;;14.95;6.00;;;;;;;;;;4935300;29;20039;-78
2023/06/26 12:00:18;;;;;;;6.47;4.60;;;;;;;;;;4937618;29;20082;-79
2023/06/26 12:02:46;;;;;;;5.25;4.85;;;;;;;;;;4938735;28;20312;-78
2023/06/26 12:05:18;;;;;;;6.75;4.90;;;;;;;;;;4936880;29;20262;-79
2023/06/26 12:07:47;;;;;;;6.22;5.63;;;;;;;;;;4932516;29;20042;-77
2023/06/26 12:10:14;;;;;;;9.98;5.50;;;;;;;;;;4938022;29;20398;-79
2023/06/26 12:12:40;;;;;;;7.55;5.78;;;;;;;;;;4940098;29;20035;-78
2023/06/26 12:15:07;;;;;;;8.63;5.93;;;;;;;;;;4937944;29;20106;-78
2023/06/26 12:17:33;;;;;;;10.57;6.32;;;;;;;;;;4944294;29;20062;-78
2023/06/26 12:19:58;;;;;;;7.88;6.50;;;;;;;;;;4943266;28;20031;-78
2023/06/26 12:22:24;;;;;;;5.95;5.35;;;;;;;;;;4941925;28;20024;-77
2023/06/26 12:24:49;;;;;;;5.82;4.43;;;;;;;;;;4941897;29;20590;-78
2023/06/26 12:27:18;;;;;;;7.82;6.30;;;;;;;;;;4939655;29;20028;-78
2023/06/26 12:29:50;;;;;;;8.35;5.60;;;;;;;;;;4943594;28;20035;-78
2023/06/26 12:32:16;;;;;;;5.82;4.28;;;;;;;;;;4942448;28;20027;-77
2023/06/26 12:34:46;;;;;;;5.53;4.95;;;;;;;;;;4940962;28;20024;-78
2023/06/26 12:37:13;;;;;;;5.38;4.82;;;;;;;;;;4939534;29;20119;-77
2023/06/26 12:40:16;;;;;;;6.88;6.10;;;;;;;;;;4937979;28;20027;-77
2023/06/26 12:42:41;;;;;;;6.32;5.32;;;;;;;;;;4938875;28;20115;-78
2023/06/26 12:45:13;;;;;;;7.25;6.05;;;;;;;;;;4942542;29;20099;-78
2023/06/26 12:47:41;;;;;;;5.45;4.90;;;;;;;;;;4938139;29;20032;-78
2023/06/26 12:50:07;;;;;;;5.60;4.97;;;;;;;;;;4935029;28;20028;-77
2023/06/26 12:52:32;;;;;;;7.13;5.93;;;;;;;;;;4939794;29;20057;-78
2023/06/26 12:54:58;;;;;;;7.10;6.50;;;;;;;;;;4940751;28;20416;-77
2023/06/26 12:57:23;;;;;;;3.92;3.53;;;;;;;;;;4939813;28;20027;-77
2023/06/26 12:59:49;;;;;;;6.78;5.95;;;;;;;;;;4937633;28;20238;-77
2023/06/26 13:02:14;;;;;;;9.35;6.70;;;;;;;;;;4939396;29;20559;-77
2023/06/26 13:04:40;;;;;;;4.25;3.75;;;;;;;;;;4938440;29;20031;-78
2023/06/26 13:07:08;;;;;;;9.00;7.38;;;;;;;;;;4933246;29;20058;-78
2023/06/26 13:09:35;;;;;;;7.13;5.10;;;;;;;;;;4931770;29;20027;-78
2023/06/26 13:12:01;;;;;;;6.78;5.78;;;;;;;;;;4937173;29;20132;-78
2023/06/26 13:14:26;;;;;;;10.25;7.53;;;;;;;;;;4933456;29;20055;-77
2023/06/26 13:16:52;;;;;;;7.18;6.50;;;;;;;;;;4936082;29;20069;-78
2023/06/26 13:19:17;;;;;;;10.57;7.80;;;;;;;;;;4935136;29;20095;-77
2023/06/26 13:21:43;;;;;;;10.43;8.50;;;;;;;;;;4938452;29;20028;-77
2023/06/26 13:24:09;;;;;;;9.65;8.65;;;;;;;;;;4935404;29;20020;-77
2023/06/26 13:26:35;;;;;;;9.50;8.50;;;;;;;;;;4937893;29;20035;-77
2023/06/26 13:29:01;;;;;;;12.55;8.48;;;;;;;;;;4936380;28;20062;-77
2023/06/26 13:31:26;;;;;;;9.15;7.90;;;;;;;;;;4939363;29;20027;-77
2023/06/26 13:33:52;;;;;;;9.20;8.20;;;;;;;;;;4937582;28;20035;-78
2023/06/26 13:36:19;;;;;;;6.85;4.80;;;;;;;;;;4938550;29;20173;-77
2023/06/26 13:38:44;;;;;;;10.90;8.57;;;;;;;;;;4939560;29;20547;-78
2023/06/26 13:41:10;;;;;;;12.45;9.55;;;;;;;;;;4938128;29;20147;-77
2023/06/26 13:43:35;;;;;;;5.93;5.35;;;;;;;;;;4933464;29;20387;-78
2023/06/26 13:46:02;;;;;;;10.68;8.57;;;;;;;;;;4934596;29;20480;-78
2023/06/26 13:48:28;;;;;;;10.52;8.05;;;;;;;;;;4935212;29;20028;-78
2023/06/26 13:50:54;;;;;;;6.40;5.78;;;;;;;;;;4932684;29;20066;-77
2023/06/26 13:53:20;;;;;;;8.88;6.88;;;;;;;;;;4930244;29;20039;-78
2023/06/26 13:55:45;;;;;;;6.85;6.22;;;;;;;;;;4935638;29;20505;-78
2023/06/26 13:58:13;;;;;;;13.07;9.63;;;;;;;;;;4935617;29;20529;-77
2023/06/26 14:00:38;;;;;;;8.48;7.25;;;;;;;;;;4936724;29;20032;-78
2023/06/26 14:03:04;;;;;;;9.05;7.97;;;;;;;;;;4934792;29;20613;-78
2023/06/26 14:05:36;;;;;;;8.68;7.82;;;;;;;;;;4936683;29;20012;-78
2023/06/26 14:08:05;;;;;;;11.75;8.27;;;;;;;;;;4933542;28;20579;-78
2023/06/26 14:10:31;;;;;;;9.05;7.13;;;;;;;;;;4934535;29;20042;-79
2023/06/26 14:13:00;;;;;;;9.15;6.65;;;;;;;;;;4936680;29;20035;-78
2023/06/26 14:15:26;;;;;;;7.80;7.10;;;;;;;;;;4934927;29;20139;-78
2023/06/26 14:17:52;;;;;;;6.05;5.43;;;;;;;;;;4936022;28;20356;-78
2023/06/26 14:20:20;;;;;;;8.50;7.20;;;;;;;;;;4932423;29;20022;-78
2023/06/26 14:22:46;;;;;;;8.55;7.75;;;;;;;;;;4936723;29;20023;-78
2023/06/26 14:25:12;;;;;;;8.18;7.20;;;;;;;;;;4936613;29;20038;-78
2023/06/26 14:27:38;;;;;;;8.75;7.38;;;;;;;;;;4937976;29;20035;-78
2023/06/26 14:30:04;;;;;;;8.02;7.22;;;;;;;;;;4934270;29;20058;-78
2023/06/26 14:32:30;;;;;;;9.48;6.95;;;;;;;;;;4936907;28;20054;-78
2023/06/26 14:34:56;;;;;;;8.48;6.72;;;;;;;;;;4939318;29;20109;-78
2023/06/26 14:37:22;;;;;;;6.95;6.25;;;;;;;;;;4937494;29;20072;-78
2023/06/26 14:39:50;;;;;;;7.07;6.38;;;;;;;;;;4938087;28;20055;-77
2023/06/26 14:42:15;;;;;;;9.18;6.70;;;;;;;;;;4934547;29;20988;-79
2023/06/26 14:44:41;;;;;;;9.35;7.25;;;;;;;;;;4936857;29;20011;-77